Weather observations for the past three days for
Clinton, Clinton-Sherman Airport
Imperial (Metric)
Date Time (cdt) Wind (mph) Vis. (mi.) Weather Sky Cond. Temperature (ºF) Relative Humidity Wind Chill (°F) Heat Index (°F) Pressure Precipitation (in)
Air Dwpt 6 hour altimeter (in) sea level (mb) 1 hr 3 hr 6 hr
Max. Min.
06 08:53 N 22 G 30 10.00 Mostly Cloudy and Breezy BKN021 48 37.9 68% 41 30.04 1016.9
06 07:53 N 16 10.00 Fair CLR 48 39 71% 42 30.02 1016.4
06 06:53 NE 17 10.00 Overcast OVC043 48.9 37 48.9 48 64% 43 30.02 1016.2
06 05:53 NE 18 10.00 Overcast OVC041 48.9 37.9 66% 43 29.99 1014.8
06 04:53 NE 14 10.00 Overcast OVC039 48.9 37.9 66% 44 29.98 1014.4
06 03:53 NE 13 10.00 Overcast OVC038 48 37.9 68% 43 29.97 1014.1
06 02:53 NE 15 10.00 Overcast OVC037 48.9 37 64% 44 29.95 1013.7
06 01:53 NE 17 10.00 Overcast OVC033 48.9 35.1 59% 43 29.94 1013.4
06 00:53 NE 18 G 26 10.00 Overcast OVC031 48.9 36 55 48.9 61% 43 29.92 1012.7
05 23:53 NE 22 G 28 10.00 Overcast and Breezy OVC023 48.9 39 69% 42 29.92 1012.6
05 22:53 NE 17 G 24 10.00 Overcast OVC021 48.9 39.9 71% 43 29.92 1012.6
05 21:53 NE 17 10.00 Mostly Cloudy BKN024 48.9 39.9 71% 43 29.89 1011.5
05 20:53 N 20 G 29 10.00 Fair CLR 50 39.9 68% 44 29.86 1010.3
05 19:53 NE 23 G 30 10.00 Mostly Cloudy and Breezy BKN038 52 39.9 64% 29.85 1009.7
05 18:53 NE 16 10.00 Overcast OVC032 55 39.9 59 54 57% 29.85 1009.8
05 17:53 N 17 10.00 Overcast BKN034 OVC042 57 41 55% 29.83 1009.1
05 16:53 NE 22 G 30 10.00 Overcast and Breezy OVC031 59 42.1 54% 29.82 1008.5
05 15:53 NE 18 10.00 Overcast OVC028 57 43 60% 29.83 1008.7
05 14:53 NE 26 G 36 10.00 Overcast and Windy OVC022 55.9 44.1 65% 29.82 1008.3
05 13:53 NE 28 G 36 10.00 Overcast and Windy OVC017 55 44.1 67% 29.81 1008.0
05 12:53 N 25 G 35 10.00 Overcast and Breezy OVC019 54 45 64 54 72% 29.82 1008.1
05 11:53 N 25 G 35 10.00 Overcast and Breezy OVC024 57 45 64% 29.79 1007.2
05 10:53 N 26 G 35 10.00 Overcast and Windy OVC021 57.9 43 58% 29.75 1005.4
05 09:53 N 23 G 32 10.00 Overcast and Breezy OVC019 57 44.1 62% 29.72 1004.6
05 08:53 N 25 G 39 10.00 Light Rain and Breezy OVC018 57.9 46.9 67% 29.68 1003.0
05 07:53 N 23 G 38 10.00 Light Rain and Breezy OVC015 62.1 54 75% 29.63 1000.9
05 06:53 NW 14 10.00 Fair CLR 60.1 50 73.9 59 70% 29.59 999.6
05 05:53 Vrbl 6 10.00 Fair CLR 60.1 42.1 52% 29.54 997.9
05 04:53 S 10 10.00 Fair CLR 63 39 41% 29.52 997.0
05 03:53 SW 12 10.00 Fair CLR 68 36 31% 29.52 996.7
05 02:53 SW 10 10.00 Fair CLR 69.1 41 36% 29.52 996.9
05 01:53 S 10 10.00 Fair CLR 70 50 49% 29.54 997.6
05 00:53 S 14 10.00 Fair CLR 73.9 51.1 91 72 45% 29.55 998.2
04 23:53 S 14 10.00 Fair CLR 75 53.1 46% 78 29.56 998.4
04 22:53 S 17 G 25 10.00 Fair CLR 79 55 44% 80 29.56 998.5
04 21:53 S 12 10.00 Fair CLR 81 45 28% 80 29.55 998.4
04 20:53 SW 9 10.00 Fair CLR 79 39 24% 78 29.53 997.9
04 19:53 SW 15 G 24 10.00 Fair CLR 88 36 16% 84 29.52 997.3
04 18:53 SW 15 10.00 Fair CLR 91 35.1 93.9 81 14% 87 29.53 997.6
04 17:53 SW 14 10.00 Fair CLR 91.9 34 13% 88 29.55 998.0
04 16:53 SW 12 G 23 10.00 Fair CLR 91.9 36 14% 88 29.56 998.5
04 15:53 S 10 G 23 10.00 A Few Clouds FEW120 91 42.1 18% 87 29.59 999.6
04 14:53 SW 17 G 28 10.00 Fair CLR 90 43 19% 86 29.63 1001.1
04 13:53 S 20 G 30 10.00 Fair CLR 87.1 46.9 25% 84 29.66 1002.0
04 12:53 SW 20 G 32 10.00 Fair CLR 81 48.9 81 59 33% 80 29.69 1003.1
04 11:53 SW 22 G 31 10.00 Fair and Breezy CLR 77 48.9 37% 78 29.71 1003.9
04 10:53 SW 22 G 31 10.00 Fair and Breezy CLR 73 48.9 43% 29.73 1004.7
04 09:53 S 22 G 31 10.00 Fair and Breezy CLR 69.1 48 47% 29.74 1005.0
04 08:53 S 23 G 33 10.00 Fair and Breezy CLR 66 46.9 50% 29.75 1005.5
04 07:53 S 18 G 29 10.00 Fair CLR 61 46 58% 29.75 1005.5
04 06:53 S 18 10.00 Fair CLR 60.1 45 66.9 57.9 58% 29.74 1005.0
04 05:53 S 17 10.00 Fair CLR 60.1 44.1 56% 29.76 1005.6
04 04:53 S 15 10.00 Fair CLR 59 44.1 58% 29.79 1006.5
04 03:53 S 16 G 23 10.00 Fair CLR 61 44.1 54% 29.79 1006.8
04 02:53 S 17 G 30 10.00 Fair CLR 63 43 48% 29.82 1007.5
04 01:53 S 21 10.00 Fair and Breezy CLR 64.9 43 45% 29.84 1008.3
04 00:53 S 17 10.00 Fair CLR 66.9 42.1 81 66 41% 29.86 1008.8
03 23:53 S 16 10.00 Fair CLR 66.9 42.1 41% 29.87 1009.2
03 22:53 S 18 G 24 10.00 Fair CLR 68 41 38% 29.88 1009.8
03 21:53 S 16 G 25 10.00 Fair CLR 71.1 39.9 32% 29.87 1009.7
03 20:53 S 14 10.00 Fair CLR 73 37 27% 29.86 1009.5
03 19:53 S 18 G 28 10.00 Fair CLR 77 36 23% 77 29.86 1009.4
03 18:53 S 22 G 33 10.00 Fair and Breezy CLR 81 36 84 80.1 20% 79 29.87 1009.8
03 17:53 S 20 G 36 10.00 Light Rain CLR 82 35.1 18% 80 29.89 1010.4
03 16:53 S 21 G 33 10.00 Light Rain and Breezy CLR 82.9 35.1 18% 80 29.9 1011.0
03 15:53 SW 21 G 35 10.00 Light Rain and Breezy CLR 82.9 35.1 18% 80 29.94 1012.3
03 14:53 S 17 G 33 10.00 Fair CLR 82 36 19% 80 29.97 1013.5
03 13:53 SW 20 G 35 10.00 Light Rain CLR 81 33.1 18% 79 30 1014.5
03 12:53 SW 16 G 30 10.00 Light Rain CLR 80.1 33.1 81 48.9 18% 79 30.04 1015.6
03 11:53 SW 20 G 31 10.00 Light Rain CLR 79 37 22% 78 30.07 1016.4
03 10:53 SW 15 G 28 10.00 Fair CLR 73 42.1 33% 30.08 1017.1
03 09:53 SW 14 10.00 Fair CLR 66.9 39.9 37% 30.09 1017.2
Date Time (cdt) Wind (mph) Vis. (mi.) Weather Sky Cond. Air Dwpt Max. Min. Relative Humidity Wind Chill (°F) Heat Index (°F) altimeter (in) sea level (mb) 1 hr 3 hr 6 hr
6 hour
Temperature (ºF) Pressure Precipitation (in)